Terminal Aerodrome Forecast
Issued by NWS

Home | Current Version | Previous Version | Text Only | Print | Product List | Glossary On
Versions: 1 2 3 4 5 6 7 8 9 10 11 12 13 14 15 16 17 18 19
000
FTUS41 KPHI 301401 AAA
TAFPNE
TAF AMD
KPNE 301401Z 3014/3112 21008KT P6SM BKN015
      TEMPO 3014/3016 SCT020
     FM301600 20010KT P6SM SCT025
     FM301700 20012G20KT P6SM SCT050
     FM310000 20008KT P6SM SCT060 BKN120
     FM310900 19004KT 5SM BR SCT015=

USA.gov is the U.S. government's official web portal to all federal, state and local government web resources and services.